sensor_id;sensor_type;location;lat;lon;timestamp;P1;durP1;ratioP1;P2;durP2;ratioP2
8007;SDS011;4049;49.468;11.200;2023-05-02T00:02:00;9.57;;;5.90;;
8007;SDS011;4049;49.468;11.200;2023-05-02T00:04:27;8.03;;;5.97;;
8007;SDS011;4049;49.468;11.200;2023-05-02T00:06:54;8.67;;;6.23;;
8007;SDS011;4049;49.468;11.200;2023-05-02T00:09:21;10.20;;;6.20;;
8007;SDS011;4049;49.468;11.200;2023-05-02T00:11:48;9.30;;;6.60;;
8007;SDS011;4049;49.468;11.200;2023-05-02T00:14:15;7.30;;;5.90;;
8007;SDS011;4049;49.468;11.200;2023-05-02T00:16:42;8.70;;;6.03;;
8007;SDS011;4049;49.468;11.200;2023-05-02T00:19:10;8.80;;;6.03;;
8007;SDS011;4049;49.468;11.200;2023-05-02T00:21:37;8.27;;;6.23;;
8007;SDS011;4049;49.468;11.200;2023-05-02T00:24:04;9.93;;;5.97;;
8007;SDS011;4049;49.468;11.200;2023-05-02T00:26:31;9.57;;;6.80;;
8007;SDS011;4049;49.468;11.200;2023-05-02T00:28:58;7.97;;;5.97;;
8007;SDS011;4049;49.468;11.200;2023-05-02T00:31:26;8.50;;;6.10;;
8007;SDS011;4049;49.468;11.200;2023-05-02T00:33:53;9.07;;;5.37;;
8007;SDS011;4049;49.468;11.200;2023-05-02T00:36:22;8.57;;;6.20;;
8007;SDS011;4049;49.468;11.200;2023-05-02T00:38:49;7.03;;;5.70;;
8007;SDS011;4049;49.468;11.200;2023-05-02T00:41:15;8.40;;;5.83;;
8007;SDS011;4049;49.468;11.200;2023-05-02T00:43:42;9.30;;;6.03;;
8007;SDS011;4049;49.468;11.200;2023-05-02T00:46:09;9.23;;;6.13;;
8007;SDS011;4049;49.468;11.200;2023-05-02T00:48:37;8.13;;;6.00;;
8007;SDS011;4049;49.468;11.200;2023-05-02T00:51:04;8.57;;;6.03;;
8007;SDS011;4049;49.468;11.200;2023-05-02T00:53:34;7.47;;;5.63;;
8007;SDS011;4049;49.468;11.200;2023-05-02T00:56:01;9.73;;;6.20;;
8007;SDS011;4049;49.468;11.200;2023-05-02T00:58:28;9.03;;;6.93;;
8007;SDS011;4049;49.468;11.200;2023-05-02T01:01:02;10.33;;;7.00;;
8007;SDS011;4049;49.468;11.200;2023-05-02T01:03:38;9.10;;;6.30;;
8007;SDS011;4049;49.468;11.200;2023-05-02T01:06:15;9.43;;;5.80;;
8007;SDS011;4049;49.468;11.200;2023-05-02T01:08:55;9.30;;;6.50;;
8007;SDS011;4049;49.468;11.200;2023-05-02T01:11:29;12.30;;;6.60;;
8007;SDS011;4049;49.468;11.200;2023-05-02T01:14:02;7.70;;;5.80;;
8007;SDS011;4049;49.468;11.200;2023-05-02T01:16:32;11.13;;;6.60;;
8007;SDS011;4049;49.468;11.200;2023-05-02T01:19:04;9.10;;;6.03;;
8007;SDS011;4049;49.468;11.200;2023-05-02T01:21:34;7.20;;;5.93;;
8007;SDS011;4049;49.468;11.200;2023-05-02T01:24:05;10.07;;;6.63;;
8007;SDS011;4049;49.468;11.200;2023-05-02T01:26:42;7.50;;;5.73;;
8007;SDS011;4049;49.468;11.200;2023-05-02T01:29:17;10.57;;;6.63;;
8007;SDS011;4049;49.468;11.200;2023-05-02T01:31:48;8.63;;;6.47;;
8007;SDS011;4049;49.468;11.200;2023-05-02T01:34:16;9.27;;;6.17;;
8007;SDS011;4049;49.468;11.200;2023-05-02T01:36:46;9.10;;;6.13;;
8007;SDS011;4049;49.468;11.200;2023-05-02T01:39:17;8.40;;;6.10;;
8007;SDS011;4049;49.468;11.200;2023-05-02T01:41:46;8.97;;;6.37;;
8007;SDS011;4049;49.468;11.200;2023-05-02T01:44:17;9.77;;;6.53;;
8007;SDS011;4049;49.468;11.200;2023-05-02T01:46:46;7.23;;;5.90;;
8007;SDS011;4049;49.468;11.200;2023-05-02T01:49:14;9.23;;;6.27;;
8007;SDS011;4049;49.468;11.200;2023-05-02T01:51:43;9.07;;;6.20;;
8007;SDS011;4049;49.468;11.200;2023-05-02T01:54:14;10.40;;;6.23;;
8007;SDS011;4049;49.468;11.200;2023-05-02T01:56:42;9.40;;;6.57;;
8007;SDS011;4049;49.468;11.200;2023-05-02T01:59:10;8.63;;;6.30;;
8007;SDS011;4049;49.468;11.200;2023-05-02T02:01:40;10.63;;;6.47;;
8007;SDS011;4049;49.468;11.200;2023-05-02T02:04:10;11.87;;;7.00;;
8007;SDS011;4049;49.468;11.200;2023-05-02T02:06:39;11.67;;;6.37;;
8007;SDS011;4049;49.468;11.200;2023-05-02T02:09:10;10.47;;;6.87;;
8007;SDS011;4049;49.468;11.200;2023-05-02T02:11:40;9.33;;;6.60;;
8007;SDS011;4049;49.468;11.200;2023-05-02T02:14:13;9.00;;;6.57;;
8007;SDS011;4049;49.468;11.200;2023-05-02T02:16:45;10.23;;;6.60;;
8007;SDS011;4049;49.468;11.200;2023-05-02T02:19:15;10.87;;;7.33;;
8007;SDS011;4049;49.468;11.200;2023-05-02T02:21:42;9.70;;;6.90;;
8007;SDS011;4049;49.468;11.200;2023-05-02T02:24:11;9.80;;;6.77;;
8007;SDS011;4049;49.468;11.200;2023-05-02T02:26:40;10.10;;;7.27;;
8007;SDS011;4049;49.468;11.200;2023-05-02T02:29:07;9.43;;;6.97;;
8007;SDS011;4049;49.468;11.200;2023-05-02T02:31:34;10.00;;;6.90;;
8007;SDS011;4049;49.468;11.200;2023-05-02T02:34:04;10.37;;;7.43;;
8007;SDS011;4049;49.468;11.200;2023-05-02T02:36:32;14.00;;;9.37;;
8007;SDS011;4049;49.468;11.200;2023-05-02T02:39:03;14.90;;;8.70;;
8007;SDS011;4049;49.468;11.200;2023-05-02T02:41:49;15.13;;;9.47;;
8007;SDS011;4049;49.468;11.200;2023-05-02T02:44:27;15.67;;;10.10;;
8007;SDS011;4049;49.468;11.200;2023-05-02T02:47:06;13.33;;;9.13;;
8007;SDS011;4049;49.468;11.200;2023-05-02T02:49:46;14.03;;;9.83;;
8007;SDS011;4049;49.468;11.200;2023-05-02T02:52:17;17.33;;;10.43;;
8007;SDS011;4049;49.468;11.200;2023-05-02T02:54:50;14.43;;;9.50;;
8007;SDS011;4049;49.468;11.200;2023-05-02T02:57:23;11.80;;;8.63;;
8007;SDS011;4049;49.468;11.200;2023-05-02T02:59:59;15.20;;;9.07;;
8007;SDS011;4049;49.468;11.200;2023-05-02T03:02:31;13.67;;;9.27;;
8007;SDS011;4049;49.468;11.200;2023-05-02T03:05:02;12.43;;;8.43;;
8007;SDS011;4049;49.468;11.200;2023-05-02T03:07:31;12.77;;;8.93;;
8007;SDS011;4049;49.468;11.200;2023-05-02T03:10:01;15.13;;;8.53;;
8007;SDS011;4049;49.468;11.200;2023-05-02T03:12:28;16.77;;;9.30;;
8007;SDS011;4049;49.468;11.200;2023-05-02T03:14:56;12.23;;;8.47;;
8007;SDS011;4049;49.468;11.200;2023-05-02T03:17:35;11.47;;;8.13;;
8007;SDS011;4049;49.468;11.200;2023-05-02T03:20:03;14.37;;;9.27;;
8007;SDS011;4049;49.468;11.200;2023-05-02T03:22:31;11.43;;;7.83;;
8007;SDS011;4049;49.468;11.200;2023-05-02T03:24:57;11.83;;;8.13;;
8007;SDS011;4049;49.468;11.200;2023-05-02T03:27:24;9.57;;;8.03;;
8007;SDS011;4049;49.468;11.200;2023-05-02T03:29:51;12.30;;;8.00;;
8007;SDS011;4049;49.468;11.200;2023-05-02T03:32:20;12.37;;;7.87;;
8007;SDS011;4049;49.468;11.200;2023-05-02T03:34:47;11.63;;;8.00;;
8007;SDS011;4049;49.468;11.200;2023-05-02T03:37:15;10.80;;;7.63;;
8007;SDS011;4049;49.468;11.200;2023-05-02T03:39:41;12.77;;;8.53;;
8007;SDS011;4049;49.468;11.200;2023-05-02T03:42:09;11.27;;;8.23;;
8007;SDS011;4049;49.468;11.200;2023-05-02T03:44:36;11.30;;;7.53;;
8007;SDS011;4049;49.468;11.200;2023-05-02T03:47:03;12.67;;;8.40;;
8007;SDS011;4049;49.468;11.200;2023-05-02T03:49:29;12.50;;;8.83;;
8007;SDS011;4049;49.468;11.200;2023-05-02T03:51:59;13.10;;;8.33;;
8007;SDS011;4049;49.468;11.200;2023-05-02T03:54:31;15.80;;;9.13;;
8007;SDS011;4049;49.468;11.200;2023-05-02T03:56:58;12.73;;;8.93;;
8007;SDS011;4049;49.468;11.200;2023-05-02T03:59:25;12.03;;;8.50;;
8007;SDS011;4049;49.468;11.200;2023-05-02T04:01:52;11.97;;;8.17;;
8007;SDS011;4049;49.468;11.200;2023-05-02T04:04:19;13.10;;;8.47;;
8007;SDS011;4049;49.468;11.200;2023-05-02T04:06:46;10.73;;;8.43;;
8007;SDS011;4049;49.468;11.200;2023-05-02T04:09:13;15.63;;;8.97;;
8007;SDS011;4049;49.468;11.200;2023-05-02T04:11:41;13.03;;;8.60;;
8007;SDS011;4049;49.468;11.200;2023-05-02T04:14:08;13.73;;;9.77;;
8007;SDS011;4049;49.468;11.200;2023-05-02T04:16:34;11.13;;;8.47;;
8007;SDS011;4049;49.468;11.200;2023-05-02T04:19:02;12.93;;;8.77;;
8007;SDS011;4049;49.468;11.200;2023-05-02T04:21:28;14.23;;;9.07;;
8007;SDS011;4049;49.468;11.200;2023-05-02T04:23:55;13.73;;;9.33;;
8007;SDS011;4049;49.468;11.200;2023-05-02T04:26:22;17.50;;;10.03;;
8007;SDS011;4049;49.468;11.200;2023-05-02T04:28:51;15.10;;;9.80;;
8007;SDS011;4049;49.468;11.200;2023-05-02T04:31:17;13.77;;;9.27;;
8007;SDS011;4049;49.468;11.200;2023-05-02T04:33:44;15.63;;;10.17;;
8007;SDS011;4049;49.468;11.200;2023-05-02T04:36:13;16.27;;;10.13;;
8007;SDS011;4049;49.468;11.200;2023-05-02T04:38:40;12.97;;;9.77;;
8007;SDS011;4049;49.468;11.200;2023-05-02T04:41:07;15.63;;;9.83;;
8007;SDS011;4049;49.468;11.200;2023-05-02T04:43:33;17.00;;;10.13;;
8007;SDS011;4049;49.468;11.200;2023-05-02T04:46:02;14.40;;;9.27;;
8007;SDS011;4049;49.468;11.200;2023-05-02T04:48:29;15.60;;;10.07;;
8007;SDS011;4049;49.468;11.200;2023-05-02T04:50:55;13.63;;;9.30;;
8007;SDS011;4049;49.468;11.200;2023-05-02T04:53:22;15.33;;;10.43;;
8007;SDS011;4049;49.468;11.200;2023-05-02T04:55:51;16.90;;;10.97;;
8007;SDS011;4049;49.468;11.200;2023-05-02T04:58:17;16.47;;;10.40;;
8007;SDS011;4049;49.468;11.200;2023-05-02T05:00:44;19.63;;;11.33;;
8007;SDS011;4049;49.468;11.200;2023-05-02T05:03:13;16.63;;;10.63;;
8007;SDS011;4049;49.468;11.200;2023-05-02T05:05:39;17.23;;;10.67;;
8007;SDS011;4049;49.468;11.200;2023-05-02T05:08:06;16.57;;;10.27;;
8007;SDS011;4049;49.468;11.200;2023-05-02T05:10:33;16.70;;;10.90;;
8007;SDS011;4049;49.468;11.200;2023-05-02T05:13:00;15.23;;;10.20;;
8007;SDS011;4049;49.468;11.200;2023-05-02T05:15:28;18.83;;;11.17;;
8007;SDS011;4049;49.468;11.200;2023-05-02T05:17:55;14.23;;;10.50;;
8007;SDS011;4049;49.468;11.200;2023-05-02T05:20:24;16.07;;;10.70;;
8007;SDS011;4049;49.468;11.200;2023-05-02T05:22:50;23.63;;;13.97;;
8007;SDS011;4049;49.468;11.200;2023-05-02T05:25:17;17.03;;;10.63;;
8007;SDS011;4049;49.468;11.200;2023-05-02T05:27:45;17.10;;;11.03;;
8007;SDS011;4049;49.468;11.200;2023-05-02T05:30:11;16.33;;;10.73;;
8007;SDS011;4049;49.468;11.200;2023-05-02T05:32:38;17.23;;;10.63;;
8007;SDS011;4049;49.468;11.200;2023-05-02T05:35:05;17.00;;;10.97;;
8007;SDS011;4049;49.468;11.200;2023-05-02T05:37:34;19.27;;;13.23;;
8007;SDS011;4049;49.468;11.200;2023-05-02T05:40:03;16.67;;;11.57;;
8007;SDS011;4049;49.468;11.200;2023-05-02T05:42:31;18.87;;;12.20;;
8007;SDS011;4049;49.468;11.200;2023-05-02T05:44:58;16.03;;;10.77;;
8007;SDS011;4049;49.468;11.200;2023-05-02T05:47:25;16.40;;;12.47;;
8007;SDS011;4049;49.468;11.200;2023-05-02T05:49:52;22.07;;;13.27;;
8007;SDS011;4049;49.468;11.200;2023-05-02T05:52:19;18.60;;;12.17;;
8007;SDS011;4049;49.468;11.200;2023-05-02T05:54:47;16.83;;;10.63;;
8007;SDS011;4049;49.468;11.200;2023-05-02T05:57:14;17.43;;;11.30;;
8007;SDS011;4049;49.468;11.200;2023-05-02T05:59:41;16.30;;;10.47;;
8007;SDS011;4049;49.468;11.200;2023-05-02T06:02:08;16.27;;;10.83;;
8007;SDS011;4049;49.468;11.200;2023-05-02T06:04:39;17.30;;;10.13;;
8007;SDS011;4049;49.468;11.200;2023-05-02T06:07:06;17.37;;;10.83;;
8007;SDS011;4049;49.468;11.200;2023-05-02T06:09:33;19.07;;;12.80;;
8007;SDS011;4049;49.468;11.200;2023-05-02T06:12:01;17.57;;;12.57;;
8007;SDS011;4049;49.468;11.200;2023-05-02T06:14:28;17.83;;;12.00;;
8007;SDS011;4049;49.468;11.200;2023-05-02T06:16:57;16.60;;;11.10;;
8007;SDS011;4049;49.468;11.200;2023-05-02T06:19:24;17.00;;;11.13;;
8007;SDS011;4049;49.468;11.200;2023-05-02T06:21:51;16.33;;;11.97;;
8007;SDS011;4049;49.468;11.200;2023-05-02T06:24:18;17.90;;;10.80;;
8007;SDS011;4049;49.468;11.200;2023-05-02T06:26:44;16.33;;;10.87;;
8007;SDS011;4049;49.468;11.200;2023-05-02T06:29:13;18.93;;;11.07;;
8007;SDS011;4049;49.468;11.200;2023-05-02T06:31:42;15.57;;;10.33;;
8007;SDS011;4049;49.468;11.200;2023-05-02T06:34:08;16.07;;;10.37;;
8007;SDS011;4049;49.468;11.200;2023-05-02T06:36:35;17.53;;;10.83;;
8007;SDS011;4049;49.468;11.200;2023-05-02T06:39:02;14.60;;;10.17;;
8007;SDS011;4049;49.468;11.200;2023-05-02T06:41:29;17.07;;;10.60;;
8007;SDS011;4049;49.468;11.200;2023-05-02T06:43:56;16.03;;;10.53;;
8007;SDS011;4049;49.468;11.200;2023-05-02T06:46:25;16.43;;;10.77;;
8007;SDS011;4049;49.468;11.200;2023-05-02T06:48:54;16.13;;;11.07;;
8007;SDS011;4049;49.468;11.200;2023-05-02T06:51:21;17.80;;;12.10;;
8007;SDS011;4049;49.468;11.200;2023-05-02T06:53:47;16.33;;;10.87;;
8007;SDS011;4049;49.468;11.200;2023-05-02T06:56:14;16.43;;;10.87;;
8007;SDS011;4049;49.468;11.200;2023-05-02T06:58:41;14.67;;;11.07;;
8007;SDS011;4049;49.468;11.200;2023-05-02T07:01:08;20.17;;;12.47;;
8007;SDS011;4049;49.468;11.200;2023-05-02T07:03:37;17.83;;;10.90;;
8007;SDS011;4049;49.468;11.200;2023-05-02T07:06:04;18.80;;;11.67;;
8007;SDS011;4049;49.468;11.200;2023-05-02T07:08:31;16.50;;;10.87;;
8007;SDS011;4049;49.468;11.200;2023-05-02T07:10:58;18.03;;;11.40;;
8007;SDS011;4049;49.468;11.200;2023-05-02T07:13:25;15.20;;;11.27;;
8007;SDS011;4049;49.468;11.200;2023-05-02T07:15:52;17.30;;;11.27;;
8007;SDS011;4049;49.468;11.200;2023-05-02T07:18:18;15.37;;;10.83;;
8007;SDS011;4049;49.468;11.200;2023-05-02T07:20:48;18.47;;;11.13;;
8007;SDS011;4049;49.468;11.200;2023-05-02T07:23:15;16.83;;;10.97;;
8007;SDS011;4049;49.468;11.200;2023-05-02T07:25:42;18.97;;;10.83;;
8007;SDS011;4049;49.468;11.200;2023-05-02T07:28:09;18.70;;;10.93;;
8007;SDS011;4049;49.468;11.200;2023-05-02T07:30:35;21.57;;;12.50;;
8007;SDS011;4049;49.468;11.200;2023-05-02T07:33:02;19.00;;;12.00;;
8007;SDS011;4049;49.468;11.200;2023-05-02T07:35:29;20.80;;;12.27;;
8007;SDS011;4049;49.468;11.200;2023-05-02T07:37:57;20.53;;;12.67;;
8007;SDS011;4049;49.468;11.200;2023-05-02T07:40:24;17.97;;;11.87;;
8007;SDS011;4049;49.468;11.200;2023-05-02T07:42:52;20.67;;;13.67;;
8007;SDS011;4049;49.468;11.200;2023-05-02T07:45:19;20.67;;;12.90;;
8007;SDS011;4049;49.468;11.200;2023-05-02T07:47:46;20.90;;;13.27;;
8007;SDS011;4049;49.468;11.200;2023-05-02T07:50:13;18.20;;;12.40;;
8007;SDS011;4049;49.468;11.200;2023-05-02T07:52:39;24.17;;;12.53;;
8007;SDS011;4049;49.468;11.200;2023-05-02T07:55:08;20.50;;;12.63;;
8007;SDS011;4049;49.468;11.200;2023-05-02T07:57:36;18.33;;;12.20;;
8007;SDS011;4049;49.468;11.200;2023-05-02T08:00:05;19.90;;;12.23;;
8007;SDS011;4049;49.468;11.200;2023-05-02T08:02:34;16.57;;;11.57;;
8007;SDS011;4049;49.468;11.200;2023-05-02T08:05:01;17.33;;;11.43;;
8007;SDS011;4049;49.468;11.200;2023-05-02T08:07:28;15.43;;;11.33;;
8007;SDS011;4049;49.468;11.200;2023-05-02T08:09:57;17.43;;;11.37;;
8007;SDS011;4049;49.468;11.200;2023-05-02T08:12:25;17.23;;;11.30;;
8007;SDS011;4049;49.468;11.200;2023-05-02T08:14:52;18.13;;;11.80;;
8007;SDS011;4049;49.468;11.200;2023-05-02T08:17:20;17.57;;;10.37;;
8007;SDS011;4049;49.468;11.200;2023-05-02T08:19:47;18.57;;;12.30;;
8007;SDS011;4049;49.468;11.200;2023-05-02T08:22:14;17.83;;;10.93;;
8007;SDS011;4049;49.468;11.200;2023-05-02T08:24:41;17.77;;;11.03;;
8007;SDS011;4049;49.468;11.200;2023-05-02T08:27:08;16.60;;;10.40;;
8007;SDS011;4049;49.468;11.200;2023-05-02T08:29:36;16.87;;;11.37;;
8007;SDS011;4049;49.468;11.200;2023-05-02T08:32:03;16.10;;;10.70;;
8007;SDS011;4049;49.468;11.200;2023-05-02T08:34:30;16.73;;;11.53;;
8007;SDS011;4049;49.468;11.200;2023-05-02T08:36:57;17.17;;;11.23;;
8007;SDS011;4049;49.468;11.200;2023-05-02T08:39:24;17.57;;;12.10;;
8007;SDS011;4049;49.468;11.200;2023-05-02T08:41:51;16.63;;;11.10;;
8007;SDS011;4049;49.468;11.200;2023-05-02T08:44:18;18.33;;;11.83;;
8007;SDS011;4049;49.468;11.200;2023-05-02T08:46:47;15.33;;;10.53;;
8007;SDS011;4049;49.468;11.200;2023-05-02T08:49:16;15.73;;;10.73;;
8007;SDS011;4049;49.468;11.200;2023-05-02T08:51:44;14.70;;;10.27;;
8007;SDS011;4049;49.468;11.200;2023-05-02T08:54:15;15.47;;;9.77;;
8007;SDS011;4049;49.468;11.200;2023-05-02T08:56:43;15.73;;;10.23;;
8007;SDS011;4049;49.468;11.200;2023-05-02T08:59:11;17.17;;;10.93;;
8007;SDS011;4049;49.468;11.200;2023-05-02T09:01:38;15.07;;;10.70;;
8007;SDS011;4049;49.468;11.200;2023-05-02T09:04:11;12.93;;;9.37;;
8007;SDS011;4049;49.468;11.200;2023-05-02T09:06:38;16.00;;;10.57;;
8007;SDS011;4049;49.468;11.200;2023-05-02T09:09:05;14.90;;;10.07;;
8007;SDS011;4049;49.468;11.200;2023-05-02T09:11:32;13.77;;;10.40;;
8007;SDS011;4049;49.468;11.200;2023-05-02T09:13:59;13.77;;;9.53;;
8007;SDS011;4049;49.468;11.200;2023-05-02T09:16:28;17.23;;;9.30;;
8007;SDS011;4049;49.468;11.200;2023-05-02T09:18:55;12.33;;;8.57;;
8007;SDS011;4049;49.468;11.200;2023-05-02T09:21:25;12.33;;;9.07;;
8007;SDS011;4049;49.468;11.200;2023-05-02T09:24:01;15.57;;;9.17;;
8007;SDS011;4049;49.468;11.200;2023-05-02T09:26:29;13.93;;;9.63;;
8007;SDS011;4049;49.468;11.200;2023-05-02T09:28:57;13.03;;;9.67;;
8007;SDS011;4049;49.468;11.200;2023-05-02T09:31:25;14.93;;;9.80;;
8007;SDS011;4049;49.468;11.200;2023-05-02T09:33:55;15.10;;;9.50;;
8007;SDS011;4049;49.468;11.200;2023-05-02T09:36:22;13.03;;;9.10;;
8007;SDS011;4049;49.468;11.200;2023-05-02T09:38:51;14.13;;;9.07;;
8007;SDS011;4049;49.468;11.200;2023-05-02T09:41:18;10.87;;;8.17;;
8007;SDS011;4049;49.468;11.200;2023-05-02T09:43:53;12.67;;;8.93;;
8007;SDS011;4049;49.468;11.200;2023-05-02T09:46:21;12.60;;;9.17;;
8007;SDS011;4049;49.468;11.200;2023-05-02T09:48:50;14.23;;;9.07;;
8007;SDS011;4049;49.468;11.200;2023-05-02T09:51:20;10.57;;;7.87;;
8007;SDS011;4049;49.468;11.200;2023-05-02T09:53:49;10.83;;;8.30;;
8007;SDS011;4049;49.468;11.200;2023-05-02T09:56:16;15.07;;;10.03;;
8007;SDS011;4049;49.468;11.200;2023-05-02T09:58:44;13.77;;;9.67;;
8007;SDS011;4049;49.468;11.200;2023-05-02T10:01:13;17.33;;;10.87;;
8007;SDS011;4049;49.468;11.200;2023-05-02T10:03:41;11.47;;;7.70;;
8007;SDS011;4049;49.468;11.200;2023-05-02T10:06:11;11.10;;;7.90;;
8007;SDS011;4049;49.468;11.200;2023-05-02T10:08:38;9.07;;;7.13;;
8007;SDS011;4049;49.468;11.200;2023-05-02T10:11:09;10.50;;;7.73;;
8007;SDS011;4049;49.468;11.200;2023-05-02T10:13:38;13.87;;;7.57;;
8007;SDS011;4049;49.468;11.200;2023-05-02T10:16:06;10.83;;;7.70;;
8007;SDS011;4049;49.468;11.200;2023-05-02T10:18:38;10.43;;;7.17;;
8007;SDS011;4049;49.468;11.200;2023-05-02T10:21:08;10.10;;;7.93;;
8007;SDS011;4049;49.468;11.200;2023-05-02T10:23:37;9.63;;;7.40;;
8007;SDS011;4049;49.468;11.200;2023-05-02T10:26:09;11.60;;;7.53;;
8007;SDS011;4049;49.468;11.200;2023-05-02T10:28:39;10.50;;;7.60;;
8007;SDS011;4049;49.468;11.200;2023-05-02T10:31:08;19.07;;;11.03;;
8007;SDS011;4049;49.468;11.200;2023-05-02T10:33:35;11.63;;;8.10;;
8007;SDS011;4049;49.468;11.200;2023-05-02T10:36:04;12.40;;;8.20;;
8007;SDS011;4049;49.468;11.200;2023-05-02T10:38:34;11.13;;;8.23;;
8007;SDS011;4049;49.468;11.200;2023-05-02T10:41:02;10.17;;;7.50;;
8007;SDS011;4049;49.468;11.200;2023-05-02T10:43:34;9.67;;;6.50;;
8007;SDS011;4049;49.468;11.200;2023-05-02T10:46:03;9.07;;;6.10;;
8007;SDS011;4049;49.468;11.200;2023-05-02T10:49:00;8.77;;;6.93;;
8007;SDS011;4049;49.468;11.200;2023-05-02T10:51:29;9.43;;;5.77;;
8007;SDS011;4049;49.468;11.200;2023-05-02T10:57:03;8.47;;;6.50;;
8007;SDS011;4049;49.468;11.200;2023-05-02T10:59:33;7.70;;;6.40;;
8007;SDS011;4049;49.468;11.200;2023-05-02T11:02:01;8.73;;;6.30;;
8007;SDS011;4049;49.468;11.200;2023-05-02T11:07:28;10.07;;;6.20;;
8007;SDS011;4049;49.468;11.200;2023-05-02T11:12:55;7.77;;;6.57;;
8007;SDS011;4049;49.468;11.200;2023-05-02T11:18:21;9.00;;;6.37;;
8007;SDS011;4049;49.468;11.200;2023-05-02T11:20:48;7.70;;;5.77;;
8007;SDS011;4049;49.468;11.200;2023-05-02T11:23:18;10.23;;;6.20;;
8007;SDS011;4049;49.468;11.200;2023-05-02T11:25:48;8.60;;;6.07;;
8007;SDS011;4049;49.468;11.200;2023-05-02T11:31:07;6.13;;;5.40;;
8007;SDS011;4049;49.468;11.200;2023-05-02T11:33:55;5.97;;;5.37;;
8007;SDS011;4049;49.468;11.200;2023-05-02T11:36:28;7.90;;;5.40;;
8007;SDS011;4049;49.468;11.200;2023-05-02T11:38:57;6.50;;;5.10;;
8007;SDS011;4049;49.468;11.200;2023-05-02T11:41:37;6.37;;;5.00;;
8007;SDS011;4049;49.468;11.200;2023-05-02T11:44:04;6.67;;;5.17;;
8007;SDS011;4049;49.468;11.200;2023-05-02T11:46:32;6.33;;;4.73;;
8007;SDS011;4049;49.468;11.200;2023-05-02T11:49:02;8.57;;;4.87;;
8007;SDS011;4049;49.468;11.200;2023-05-02T11:51:29;6.17;;;4.83;;
8007;SDS011;4049;49.468;11.200;2023-05-02T11:53:56;5.53;;;4.93;;
8007;SDS011;4049;49.468;11.200;2023-05-02T11:56:23;6.20;;;4.40;;
8007;SDS011;4049;49.468;11.200;2023-05-02T11:58:56;6.93;;;4.40;;
8007;SDS011;4049;49.468;11.200;2023-05-02T12:01:23;6.17;;;4.37;;
8007;SDS011;4049;49.468;11.200;2023-05-02T12:03:54;6.10;;;4.30;;
8007;SDS011;4049;49.468;11.200;2023-05-02T12:06:27;6.03;;;4.10;;
8007;SDS011;4049;49.468;11.200;2023-05-02T12:09:05;4.47;;;3.80;;
8007;SDS011;4049;49.468;11.200;2023-05-02T12:11:33;6.93;;;3.90;;
8007;SDS011;4049;49.468;11.200;2023-05-02T12:14:02;4.60;;;3.53;;
8007;SDS011;4049;49.468;11.200;2023-05-02T12:16:29;4.27;;;3.47;;
8007;SDS011;4049;49.468;11.200;2023-05-02T12:18:57;5.10;;;3.63;;
8007;SDS011;4049;49.468;11.200;2023-05-02T12:21:25;4.87;;;3.67;;
8007;SDS011;4049;49.468;11.200;2023-05-02T12:23:53;5.40;;;3.83;;
8007;SDS011;4049;49.468;11.200;2023-05-02T12:26:20;4.00;;;3.50;;
8007;SDS011;4049;49.468;11.200;2023-05-02T12:28:49;5.07;;;3.80;;
8007;SDS011;4049;49.468;11.200;2023-05-02T12:31:16;4.53;;;3.60;;
8007;SDS011;4049;49.468;11.200;2023-05-02T12:33:44;6.07;;;4.20;;
8007;SDS011;4049;49.468;11.200;2023-05-02T12:36:14;7.03;;;4.13;;
8007;SDS011;4049;49.468;11.200;2023-05-02T12:38:46;5.63;;;3.73;;
8007;SDS011;4049;49.468;11.200;2023-05-02T12:41:15;7.03;;;3.93;;
8007;SDS011;4049;49.468;11.200;2023-05-02T12:43:43;6.47;;;3.50;;
8007;SDS011;4049;49.468;11.200;2023-05-02T12:46:11;4.77;;;3.23;;
8007;SDS011;4049;49.468;11.200;2023-05-02T12:48:38;4.03;;;3.40;;
8007;SDS011;4049;49.468;11.200;2023-05-02T12:51:05;3.77;;;3.40;;
8007;SDS011;4049;49.468;11.200;2023-05-02T12:53:40;4.53;;;3.43;;
8007;SDS011;4049;49.468;11.200;2023-05-02T12:56:08;5.00;;;3.67;;
8007;SDS011;4049;49.468;11.200;2023-05-02T12:58:39;4.83;;;3.20;;
8007;SDS011;4049;49.468;11.200;2023-05-02T13:01:07;3.87;;;2.90;;
8007;SDS011;4049;49.468;11.200;2023-05-02T13:03:34;4.07;;;2.00;;
8007;SDS011;4049;49.468;11.200;2023-05-02T13:06:01;2.70;;;2.20;;
8007;SDS011;4049;49.468;11.200;2023-05-02T13:08:28;1.70;;;1.53;;
8007;SDS011;4049;49.468;11.200;2023-05-02T13:10:56;2.40;;;2.20;;
8007;SDS011;4049;49.468;11.200;2023-05-02T13:13:24;3.17;;;2.80;;
8007;SDS011;4049;49.468;11.200;2023-05-02T13:15:52;3.67;;;2.77;;
8007;SDS011;4049;49.468;11.200;2023-05-02T13:18:18;4.53;;;3.80;;
8007;SDS011;4049;49.468;11.200;2023-05-02T13:20:45;8.77;;;4.50;;
8007;SDS011;4049;49.468;11.200;2023-05-02T13:23:12;4.10;;;3.70;;
8007;SDS011;4049;49.468;11.200;2023-05-02T13:25:40;5.73;;;3.80;;
8007;SDS011;4049;49.468;11.200;2023-05-02T13:28:09;4.37;;;3.37;;
8007;SDS011;4049;49.468;11.200;2023-05-02T13:30:35;3.53;;;3.00;;
8007;SDS011;4049;49.468;11.200;2023-05-02T13:33:02;4.37;;;3.00;;
8007;SDS011;4049;49.468;11.200;2023-05-02T13:35:29;3.43;;;2.60;;
8007;SDS011;4049;49.468;11.200;2023-05-02T13:37:56;3.43;;;2.63;;
8007;SDS011;4049;49.468;11.200;2023-05-02T13:40:23;3.23;;;2.57;;
8007;SDS011;4049;49.468;11.200;2023-05-02T13:42:50;4.17;;;2.60;;
8007;SDS011;4049;49.468;11.200;2023-05-02T13:45:18;3.60;;;2.83;;
8007;SDS011;4049;49.468;11.200;2023-05-02T13:47:45;3.67;;;3.23;;
8007;SDS011;4049;49.468;11.200;2023-05-02T13:50:11;4.50;;;3.57;;
8007;SDS011;4049;49.468;11.200;2023-05-02T13:52:38;3.83;;;3.47;;
8007;SDS011;4049;49.468;11.200;2023-05-02T13:55:05;3.60;;;3.00;;
8007;SDS011;4049;49.468;11.200;2023-05-02T13:57:33;6.27;;;4.07;;
8007;SDS011;4049;49.468;11.200;2023-05-02T14:00:00;5.37;;;3.63;;
8007;SDS011;4049;49.468;11.200;2023-05-02T14:02:29;4.97;;;3.60;;
8007;SDS011;4049;49.468;11.200;2023-05-02T14:04:55;5.13;;;3.60;;
8007;SDS011;4049;49.468;11.200;2023-05-02T14:07:22;4.90;;;3.47;;
8007;SDS011;4049;49.468;11.200;2023-05-02T14:09:49;7.87;;;3.73;;
8007;SDS011;4049;49.468;11.200;2023-05-02T14:12:16;4.03;;;3.17;;
8007;SDS011;4049;49.468;11.200;2023-05-02T14:14:43;2.70;;;2.50;;
8007;SDS011;4049;49.468;11.200;2023-05-02T14:17:10;2.70;;;2.50;;
8007;SDS011;4049;49.468;11.200;2023-05-02T14:19:38;5.57;;;3.00;;
8007;SDS011;4049;49.468;11.200;2023-05-02T14:22:05;3.93;;;2.77;;
8007;SDS011;4049;49.468;11.200;2023-05-02T14:24:32;2.80;;;2.60;;
8007;SDS011;4049;49.468;11.200;2023-05-02T14:26:59;3.37;;;2.40;;
8007;SDS011;4049;49.468;11.200;2023-05-02T14:29:26;3.33;;;2.70;;
8007;SDS011;4049;49.468;11.200;2023-05-02T14:31:52;2.77;;;2.57;;
8007;SDS011;4049;49.468;11.200;2023-05-02T14:34:19;4.20;;;3.00;;
8007;SDS011;4049;49.468;11.200;2023-05-02T14:36:52;5.23;;;2.67;;
8007;SDS011;4049;49.468;11.200;2023-05-02T14:39:18;2.90;;;2.37;;
8007;SDS011;4049;49.468;11.200;2023-05-02T14:41:45;3.17;;;2.80;;
8007;SDS011;4049;49.468;11.200;2023-05-02T14:44:12;3.43;;;2.57;;
8007;SDS011;4049;49.468;11.200;2023-05-02T14:46:39;2.70;;;2.33;;
8007;SDS011;4049;49.468;11.200;2023-05-02T14:49:06;3.43;;;2.57;;
8007;SDS011;4049;49.468;11.200;2023-05-02T14:51:33;3.47;;;2.53;;
8007;SDS011;4049;49.468;11.200;2023-05-02T14:54:04;4.50;;;3.10;;
8007;SDS011;4049;49.468;11.200;2023-05-02T14:56:31;4.30;;;2.10;;
8007;SDS011;4049;49.468;11.200;2023-05-02T14:58:58;3.43;;;2.47;;
8007;SDS011;4049;49.468;11.200;2023-05-02T15:01:24;2.23;;;2.03;;
8007;SDS011;4049;49.468;11.200;2023-05-02T15:03:51;3.00;;;2.50;;
8007;SDS011;4049;49.468;11.200;2023-05-02T15:06:19;3.67;;;2.13;;
8007;SDS011;4049;49.468;11.200;2023-05-02T15:08:46;2.50;;;2.03;;
8007;SDS011;4049;49.468;11.200;2023-05-02T15:11:15;3.07;;;1.53;;